createdAt,value
2018-06-15T00:04:29.131Z,16.80
2018-06-15T00:09:22.808Z,16.70
2018-06-15T00:14:16.040Z,16.70
2018-06-15T00:19:09.344Z,16.70
2018-06-15T00:24:02.579Z,16.60
2018-06-15T00:28:55.796Z,16.60
2018-06-15T00:33:49.040Z,16.60
2018-06-15T00:38:42.274Z,16.70
2018-06-15T00:43:35.520Z,16.70
2018-06-15T00:48:28.848Z,16.60
2018-06-15T00:53:22.081Z,16.50
2018-06-15T00:58:15.340Z,16.50
2018-06-15T01:03:08.643Z,16.50
2018-06-15T01:08:01.905Z,16.50
2018-06-15T01:12:55.133Z,16.40
2018-06-15T01:17:48.441Z,16.50
2018-06-15T01:22:41.747Z,16.40
2018-06-15T01:27:35.046Z,16.40
2018-06-15T01:32:28.416Z,16.40
2018-06-15T01:37:21.664Z,16.30
2018-06-15T01:42:14.998Z,16.40
2018-06-15T01:47:08.989Z,16.40
2018-06-15T01:52:02.210Z,16.30
2018-06-15T01:56:55.496Z,16.30
2018-06-15T02:01:48.813Z,16.30
2018-06-15T02:06:42.111Z,16.30
2018-06-15T02:11:35.360Z,16.30
2018-06-15T02:16:28.734Z,16.20
2018-06-15T02:21:22.018Z,16.20
2018-06-15T02:26:15.261Z,16.20
2018-06-15T02:31:08.543Z,16.20
2018-06-15T02:36:01.836Z,16.30
2018-06-15T02:40:55.087Z,16.30
2018-06-15T02:45:48.385Z,16.30
2018-06-15T02:50:41.676Z,16.40
2018-06-15T02:55:35.003Z,16.30
2018-06-15T03:00:28.274Z,16.40
2018-06-15T03:05:21.801Z,16.40
2018-06-15T03:10:15.142Z,16.40
2018-06-15T03:15:08.420Z,16.40
2018-06-15T03:20:01.685Z,16.50
2018-06-15T03:24:54.917Z,16.50
2018-06-15T03:29:48.175Z,16.50
2018-06-15T03:34:41.403Z,16.40
2018-06-15T03:39:34.768Z,16.40
2018-06-15T03:44:28.023Z,16.40
2018-06-15T03:49:21.259Z,16.60
2018-06-15T03:54:14.543Z,16.50
2018-06-15T03:59:07.783Z,16.50
2018-06-15T04:04:01.060Z,16.50
2018-06-15T04:08:54.310Z,16.50
2018-06-15T04:13:47.582Z,16.60
2018-06-15T04:18:40.967Z,16.70
2018-06-15T04:23:34.238Z,16.70
2018-06-15T04:28:27.461Z,16.80
2018-06-15T04:33:20.719Z,16.80
2018-06-15T04:38:13.988Z,16.80
2018-06-15T04:43:07.254Z,17.10
2018-06-15T04:48:00.502Z,17.30
2018-06-15T04:52:53.777Z,17.50
2018-06-15T04:57:47.168Z,17.80
2018-06-15T05:02:40.423Z,17.90
2018-06-15T05:07:33.681Z,18.10
2018-06-15T05:12:26.926Z,18.20
2018-06-15T05:17:20.298Z,18.30
2018-06-15T05:22:13.504Z,18.60
2018-06-15T05:27:06.774Z,18.90
2018-06-15T05:32:00.016Z,19.00
2018-06-15T05:36:53.297Z,19.10
2018-06-15T05:41:46.538Z,19.30
2018-06-15T05:46:39.776Z,19.10
2018-06-15T05:51:33.099Z,19.00
2018-06-15T05:56:27.124Z,19.40
2018-06-15T06:01:20.437Z,20.00
2018-06-15T06:06:14.035Z,20.00
2018-06-15T06:11:07.322Z,20.30
2018-06-15T06:16:00.656Z,20.70
2018-06-15T06:20:53.922Z,20.90
2018-06-15T06:25:47.155Z,21.10
2018-06-15T06:30:40.416Z,21.50
2018-06-15T06:35:33.744Z,23.30
2018-06-15T06:40:27.049Z,25.00
2018-06-15T06:45:20.343Z,25.10
2018-06-15T06:50:13.616Z,26.80
2018-06-15T06:55:06.884Z,25.90
2018-06-15T07:00:00.228Z,25.20
2018-06-15T07:04:53.769Z,25.00
2018-06-15T07:09:47.052Z,24.90
2018-06-15T07:14:40.706Z,24.70
2018-06-15T07:19:34.067Z,24.60
2018-06-15T07:24:27.361Z,23.90
2018-06-15T07:29:20.615Z,24.40
2018-06-15T07:34:13.872Z,25.50
2018-06-15T07:39:08.727Z,26.30
2018-06-15T07:44:02.015Z,25.20
2018-06-15T07:48:55.381Z,25.10
2018-06-15T07:53:48.662Z,25.20
2018-06-15T07:58:41.922Z,25.90
2018-06-15T08:03:35.277Z,26.30
2018-06-15T08:08:28.609Z,27.50
2018-06-15T08:13:21.847Z,27.90
2018-06-15T08:18:15.109Z,28.50
2018-06-15T08:23:08.356Z,28.10
2018-06-15T08:28:01.669Z,27.20
2018-06-15T08:32:54.980Z,29.30
2018-06-15T08:37:48.255Z,31.00
2018-06-15T08:42:41.547Z,32.60
2018-06-15T08:47:34.823Z,30.60
2018-06-15T08:52:28.123Z,32.80
2018-06-15T08:57:21.350Z,34.40
2018-06-15T09:02:14.581Z,32.20
2018-06-15T09:07:07.799Z,30.30
2018-06-15T09:12:01.049Z,28.00
2018-06-15T09:16:54.320Z,25.90
2018-06-15T09:21:47.602Z,24.10
2018-06-15T09:26:40.874Z,23.90
2018-06-15T09:31:34.147Z,24.20
2018-06-15T09:36:27.370Z,26.40
2018-06-15T09:41:20.616Z,28.20
2018-06-15T09:46:13.950Z,30.40
2018-06-15T09:51:07.223Z,28.90
2018-06-15T09:56:00.520Z,27.20
2018-06-15T10:00:59.459Z,26.00
2018-06-15T10:05:52.693Z,25.10
2018-06-15T10:10:46.022Z,25.20
2018-06-15T10:15:39.285Z,27.40
2018-06-15T10:20:33.068Z,28.70
2018-06-15T10:25:27.123Z,28.50
2018-06-15T10:30:23.157Z,28.40
2018-06-15T10:35:16.840Z,26.90
2018-06-15T10:40:10.103Z,25.30
2018-06-15T10:45:03.413Z,25.60
2018-06-15T10:49:56.710Z,25.40
2018-06-15T10:54:49.971Z,24.90
2018-06-15T10:59:43.228Z,25.60
2018-06-15T11:04:36.535Z,26.20
2018-06-15T11:09:29.906Z,25.80
2018-06-15T11:14:23.164Z,26.30
2018-06-15T11:19:16.425Z,26.30
2018-06-15T11:24:09.690Z,26.20
2018-06-15T11:29:02.959Z,25.30
2018-06-15T11:33:56.241Z,26.00
2018-06-15T11:38:49.520Z,26.10
2018-06-15T11:43:42.835Z,26.30
2018-06-15T11:48:36.084Z,27.10
2018-06-15T11:53:29.332Z,26.90
2018-06-15T11:58:22.596Z,27.30
2018-06-15T12:03:15.930Z,27.50
2018-06-15T12:08:09.183Z,27.30
2018-06-15T12:13:02.441Z,27.50
2018-06-15T12:17:55.710Z,26.60
2018-06-15T12:22:48.945Z,27.20
2018-06-15T12:27:42.205Z,27.10
2018-06-15T12:32:35.463Z,27.10
2018-06-15T12:37:28.861Z,27.30
2018-06-15T12:42:22.133Z,27.50
2018-06-15T12:47:15.356Z,26.70
2018-06-15T12:52:08.624Z,26.80
2018-06-15T12:57:01.966Z,27.10
2018-06-15T13:01:55.204Z,27.10
2018-06-15T13:06:48.471Z,26.20
2018-06-15T13:11:41.756Z,26.10
2018-06-15T13:16:35.255Z,25.90
2018-06-15T13:21:28.504Z,26.50
2018-06-15T13:26:21.901Z,26.30
2018-06-15T13:31:15.148Z,26.80
2018-06-15T13:36:08.518Z,26.90
2018-06-15T13:41:01.780Z,27.50
2018-06-15T13:45:55.048Z,27.80
2018-06-15T13:50:48.891Z,26.60
2018-06-15T13:55:42.142Z,26.80
2018-06-15T14:00:35.397Z,27.10
2018-06-15T14:05:28.716Z,27.30
2018-06-15T14:10:22.012Z,27.20
2018-06-15T14:15:15.405Z,26.60
2018-06-15T14:20:08.661Z,26.20
2018-06-15T14:25:01.991Z,25.80
2018-06-15T14:29:55.236Z,26.50
2018-06-15T14:34:48.487Z,27.40
2018-06-15T14:39:41.744Z,27.50
2018-06-15T14:44:35.036Z,27.60
2018-06-15T14:49:28.954Z,28.20
2018-06-15T14:54:22.200Z,28.20
2018-06-15T14:59:15.442Z,28.60
2018-06-15T15:04:08.688Z,28.30
2018-06-15T15:09:02.023Z,28.10
2018-06-15T15:13:58.770Z,28.10
2018-06-15T15:18:55.840Z,28.10
2018-06-15T15:23:52.758Z,28.80
2018-06-15T15:28:49.717Z,29.40
2018-06-15T15:33:47.197Z,29.80
2018-06-15T15:38:45.478Z,29.70
2018-06-15T15:43:41.778Z,29.60
2018-06-15T15:48:35.227Z,29.30
2018-06-15T15:53:32.682Z,29.30
2018-06-15T15:58:26.140Z,28.90
2018-06-15T16:03:19.463Z,28.40
2018-06-15T16:08:16.425Z,27.80
2018-06-15T16:13:13.848Z,27.50
2018-06-15T16:18:11.045Z,27.20
2018-06-15T16:23:04.772Z,27.20
2018-06-15T16:28:02.181Z,27.10
2018-06-15T16:32:59.288Z,27.40
2018-06-15T16:37:56.675Z,27.60
2018-06-15T16:42:50.055Z,27.00
2018-06-15T16:47:47.189Z,26.80
2018-06-15T16:52:40.509Z,26.70
2018-06-15T16:57:39.397Z,26.50
2018-06-15T17:02:32.716Z,26.40
2018-06-15T17:07:29.936Z,26.60
2018-06-15T17:12:28.032Z,26.50
2018-06-15T17:17:25.376Z,26.50
2018-06-15T17:22:22.806Z,26.40
2018-06-15T17:27:16.126Z,26.20
2018-06-15T17:32:09.379Z,26.20
2018-06-15T17:37:03.573Z,26.10
2018-06-15T17:41:57.090Z,26.10
2018-06-15T17:46:50.372Z,26.10
2018-06-15T17:51:43.618Z,26.00
2018-06-15T17:56:36.981Z,25.60
2018-06-15T18:01:30.526Z,25.20
2018-06-15T18:06:23.780Z,24.90
2018-06-15T18:11:17.098Z,24.80
2018-06-15T18:16:10.354Z,24.80
2018-06-15T18:21:03.814Z,24.70
2018-06-15T18:25:57.137Z,24.40
2018-06-15T18:30:50.375Z,24.20
2018-06-15T18:35:43.677Z,24.00
2018-06-15T18:40:36.952Z,23.90
2018-06-15T18:45:30.251Z,23.70
2018-06-15T18:50:23.552Z,23.60
2018-06-15T18:55:16.813Z,23.60
2018-06-15T19:00:10.055Z,23.60
2018-06-15T19:05:03.398Z,23.50
2018-06-15T19:09:56.650Z,23.50
2018-06-15T19:14:49.936Z,23.40
2018-06-15T19:19:43.231Z,23.30
2018-06-15T19:24:36.493Z,23.30
2018-06-15T19:29:29.749Z,23.20
2018-06-15T19:34:29.576Z,23.10
2018-06-15T19:39:22.807Z,23.00
2018-06-15T19:44:16.071Z,22.90
2018-06-15T19:49:09.348Z,22.70
2018-06-15T19:54:03.418Z,22.50
2018-06-15T19:58:56.725Z,22.40
2018-06-15T20:03:49.930Z,22.30
2018-06-15T20:08:43.168Z,22.20
2018-06-15T20:13:40.386Z,22.10
2018-06-15T20:18:37.992Z,22.00
2018-06-15T20:23:34.896Z,21.90
2018-06-15T20:28:32.323Z,21.80
2018-06-15T20:33:25.647Z,21.60
2018-06-15T20:38:22.738Z,21.30
2018-06-15T20:43:16.201Z,21.20
2018-06-15T20:48:12.945Z,21.10
2018-06-15T20:53:09.899Z,20.90
2018-06-15T20:58:07.958Z,20.80
2018-06-15T21:03:01.526Z,20.70
2018-06-15T21:07:59.190Z,20.50
2018-06-15T21:12:52.473Z,20.30
2018-06-15T21:17:45.768Z,20.10
2018-06-15T21:22:39.035Z,20.00
2018-06-15T21:27:32.297Z,20.00
2018-06-15T21:32:25.518Z,20.00
2018-06-15T21:37:18.783Z,20.10
2018-06-15T21:42:12.017Z,20.10
2018-06-15T21:47:05.432Z,20.00
2018-06-15T21:51:58.721Z,19.80
2018-06-15T21:56:51.958Z,19.70
2018-06-15T22:01:45.197Z,19.60
2018-06-15T22:06:38.497Z,19.50
2018-06-15T22:11:31.877Z,19.50
2018-06-15T22:16:25.355Z,19.50
2018-06-15T22:21:18.682Z,19.60
2018-06-15T22:26:12.071Z,19.60
2018-06-15T22:31:05.518Z,19.50
2018-06-15T22:35:58.910Z,19.50
2018-06-15T22:40:52.240Z,19.50
2018-06-15T22:45:45.526Z,19.50
2018-06-15T22:50:38.785Z,19.60
2018-06-15T22:55:32.048Z,19.60
2018-06-15T23:00:25.947Z,19.60
2018-06-15T23:05:19.234Z,19.70
2018-06-15T23:10:12.502Z,19.80
2018-06-15T23:15:06.367Z,19.80
2018-06-15T23:19:59.646Z,19.80
2018-06-15T23:24:52.934Z,19.60
2018-06-15T23:29:46.375Z,19.50
2018-06-15T23:34:39.638Z,19.20
2018-06-15T23:39:32.930Z,19.00
2018-06-15T23:44:26.179Z,18.80
2018-06-15T23:49:19.446Z,18.70
2018-06-15T23:54:12.698Z,18.40
2018-06-15T23:59:06.363Z,18.20
